Upload a Photo Upload a Video Add a News article Write a Blog Add a Comment
Blog Feed News Feed Video Feed All Feeds

Folders

2010 Results - Nike Pre-Nationals(Sep 25 2010, 10:01 PM)
2010 Results - Hood to Coast Relay(Aug 31 2010, 05:46 AM)
2010 Results - Mt. Hood Twilight(May 11 2010, 08:59 AM)
2010 LIVE Results - Oregon Twilight(May 8 2010, 10:23 PM)
2010 Entries - Oregon Twilight(May 7 2010, 02:01 AM)
2010 Results - Pacific NW Relays(Apr 10 2010, 07:34 AM)
 

News

 

2010 Results - Hood to Coast Relay

Published by
ross   on Aug 31 2010, 05:46 AM

HOOD TO COAST RELAY

PORTLAND TO COAST WALK RELAY

PTC HIGH SCHOOL CHALLENGE RELAY

 

Past Years Results:

1999 | 2000 | 2001 | 2002 | 2003 | 2004 | 2005 | 2006 | 200720082009

 

COURSE RECORDS

 
2010 "Best Of"

                           Best Team Outfit: (PTC) Disco Divas (HTC) Superheroes

                           Best Team Name: (PTC) Save the Racks (HTC) Wii Not Fit

                           Best Van Decor: (PTC) Save the Racks (HTC) Top Gun

                           Best Volunteer: (HTC/PTC) Jackie Carrsow

Overall
1 BAC Men 145 17:24:16
2 Knoxville Track Club 1 18:14:49
3 Team Ariki New Zealand 802 19:07:38
4 Tarahumara 147 19:17:08
5 Extra Virgins 943 19:23:46
6 Portland Track Club 944 19:30:23
7 Google 969 19:41:05
8 The Olympic Club 946 19:52:15
9 WILLAMETTE DENTAL 13 19:55:31
10 MTR Western #2 132 20:01:56
11 Almost Dead Jocks  991 20:05:31
12 Brooks Beast 1518 20:20:50
13 New York Bad Apples 959 20:22:16
14 Puke and Rally 955 20:24:56
15 Slug Hunters 997 20:29:54
16 Black Flag 27 20:39:46
17 Brew-Bunnies 960 20:52:31
18 Team Endorphiends 6 20:52:52
19 Parkland Youth 4 21:04:32
20 Big Kahunas 949 21:08:08
21 Leapin Lizards 23 21:18:55
22 Nike Dairy Airs 151 21:25:48
23 Nature Boyz 15 Powered by Wheaties Fuel 953 21:25:54
24 The Intel Quad Corps 21 21:28:00
25 Girls Just Want to Have Fun 951 21:29:26
26 Team Nidever 111 21:31:50
27 Houston, we have a problem 962 21:33:04
28 Maloney’s Commandos 945 21:33:43
29 Dirty Half Dozen +6 1540 21:41:36
30 GE Meatballs 1510 21:45:42
31 Dead on Arrival (DOA) 8 21:51:00
32 Atlanta Track Club 190 21:54:59
33 Changes in Altitude 948 21:57:10
34 Stress Factors 1534 21:58:35
35 MustAche 2 Coast 113 22:03:21
36 Sound Sports 964 22:11:15
37 Bandidos 941 22:19:49
38 Jacks In The Hood 851 22:24:09
39 Team Money....Devalued 936 22:24:45
40 Pink Ladies 990 22:32:06
41 Team Bula 968 22:34:29
42 704 XC 920 22:43:50
43 Precision Castsharks 211 22:50:02
44 Buffalo Rohto Checkers 824 22:50:52
45 Browse This 879 22:53:17
46 Gu 2 1537 22:57:34
47 Andrea Colpitt 841 22:59:21
48 Nike Great Bowels of Fire 152 23:02:05
49 LEX 182 23:03:03
50 BAC Women 146 23:03:25
51 Atlanta Track Club Masters Men Team 194 23:06:15
52 I Closed Wolski's 1505 23:14:02
53 Baba Yaga 954 23:14:10
54 Hell on Waffles 150 23:19:27
55 Wood to Boast 931 23:24:43
56 Team Mojo 966 23:25:45
57 Yazoo Growlers 862 23:29:40
58 Dead Jocks in a Box 999 23:30:48
59 Team DB 142 23:31:20
60 Seniors of Mosier Valley 467 23:33:34
61 Nike Semi-Slow 162 23:34:35
62 Team RunwithPaula 22 23:35:53
63 Team GFR Salty Sistas 3 23:38:11
64 Southeast Hood Rats 617 23:40:22
65 Babson's Army 283 23:43:12
66 Nature Girlz 956 23:44:30
67 Strangers in a Strange Van 875 23:47:53
68 Snake Hill Preservation Society 460 23:48:10
69 Adjective Nouns Verbing Adverbially 939 23:48:49
70 Old and Fading 831 23:51:06
71 KM SPORT ITALIA 795 23:51:57
72 No Walkin till the Van Passes 952 24:01:27
73 Eugene Running Company 96 24:04:00
74 Desperate Housewives 993 24:04:57
75 Eleven Jerks and a Squirt 575 24:09:24
76 Nifty Fifties 436 24:10:05
77 It's All Gouda! 12 24:10:08
78 Run Forest 447 24:11:52
79 Killer Kows 590 24:13:23
80 Trinity Sports Camps 621 24:14:29
81 Dead Men Running 79 24:14:47
82 Fighting Squirrels 775 24:16:12
83 Blue Thunder 191 24:16:55
84 We Wanna Go Fast! 896 24:21:29
85 Fat Cheetahs 1503 24:22:44
86 Navy Never Fades 736 24:25:17
87 Dream Smiles 636 24:28:09
88 Shinkansen 1508 24:28:45
89 Norse Force 880 24:30:47
90 12 Pleasant Pheasant Pluckers 627 24:31:11
91 DbM Lemmings 974 24:35:26
92 Twisted Blister 484 24:37:52
93 Gu'd To Go 417 24:41:55
94 Speed Racers 346 24:42:05
95 Mid-Leg Crisis 163 24:44:07
96 Running For Shelter 242 24:45:29
97 The Insomniacs 49 24:47:42
98 Southern Soles 849 24:48:28
99 Jim Hulse 930 24:49:18
100 Liquid Carb Road Racers 874 24:49:32
101 Hot Tamales 967 24:52:42
102 N.E.P. Runners 215 24:54:36
103 Sour Flower Power 468 24:57:20
104 When the Fit Hits the Shan 450 24:57:37
105 Crap Chute 745 24:58:17
106 Key Lime Shooters 940 24:58:49
107 Peter Bowden 838 24:59:00
108 Fine Whine Too 10 25:00:07
109 Red Dress Express 202 25:00:17
110 Slow Code 418 25:00:58
111 ez duhzit 758 25:02:36
112 Sorry For Partying 935 25:03:30
113 No time to stop for the slop  297 25:04:11
114 Muscles and Clams 915 25:07:32
115 Lickety Split 71 25:08:06
116 SSA Mathletes 201 25:09:00
117 Running Our Assets Off! 139 25:10:46
118 Tahoe Trail Babes 958 25:12:04
119 Kickin Asphalt 813 25:12:36
120 Team Chopped Liver 309 25:14:52
121 Brazil Run&Fun Team - 2010 H2C 785 25:17:06
122 Rusty Trombone 902 25:17:40
123 Zagalicious 451 25:18:01
124 24 Feet, 36 Legs 912 25:19:06
125 Big Sausage Pizza 318 25:23:22
126 Seamonkeys 303 25:28:23
127 Huschkaka and Friends 855 25:29:14
128 Muppets Take Mt Hood 871 25:29:28
129 Lost in Pace 401 25:30:13
130 Shiney Heinies 155 25:33:52
131 Gonna Fly Now 255 25:35:29
132 Ah Mr. T 290 25:35:47
133 Hard soiled legs 741 25:36:29
134 Young Tarts & Old Farts 970 25:36:38
135 Captain Jax' Sparrows 848 25:36:49
136 BRAZILIAN WIND 786 25:37:29
137 Joyce's Juggernauts 695 25:38:14
138 Moon Over My Hammies 942 25:38:15
139 AFROTC Det 695 86 25:39:08
140 Portland Fire 251 25:44:49
141 Runners Wanted 1527 25:45:05
142 Run with the Grain 338 25:45:34
143 Nuclear Yellow P 324 25:46:24
144 Umumshiba 823 25:46:26
145 Badly Bruised Bananas 776 25:47:10
146 The Natural Disasters 863 25:47:24
147 Sole Survivors  965 25:47:47
148 Hummingbirds 796 25:49:17
149 Rick Finn 927 25:50:22
150 Moon Boys and Earth Girls 376 25:50:51
151 Brooks Trance 1517 25:52:03
152 Lost in the PACS 24 25:55:38
153 Hillbillies 594 25:57:06
154 NoCho 541 25:57:27
155 Flying Finns 529 25:58:04
156 Brooks Ghost 1516 25:58:10
157 Coast busters 854 25:58:13
158 Team Natasha 864 25:58:26
159 Last Legs 961 25:59:19
160 Team Boileau 406 25:59:34
161 Banana Striders 971 26:00:11
162 Road Kilts 640 26:00:19
163 Court Jesters 76 26:00:50
164 The Generics 977 26:01:19
165 Spider Monkeys 596 26:02:42
166 The Original Roads Scholars 975 26:03:21
167 Tomato Farmers 148 26:03:45
168 Magnificent Bastards & a Lady 906 26:04:15
169 Coast Mortem 478 26:04:55
170 Cultured Runners 978 26:04:56
171 Maniac Moms 1506 26:05:55
172 Moose Knuckles 919 26:06:42
173 genghis khan and the mongols 399 26:06:52
174 12 Buns but only 5 Sausages 499 26:08:05
175 Dirty Renegades 171 26:08:18
176 Superheroes 356 26:08:27
177 12 Angry Glutes (x2) 438 26:08:50
178 Chafers 479 26:09:19
179 Shut It Down 819 26:09:38
180 Magnificent Milers 199 26:10:32
181 Get Smart! 377 26:11:31
182 Gary and The Dangledowns 648 26:12:00
183 Cirque du Sore Legs - Nieuwstraten 109 26:12:00
184 Wanna Beer? Sher-Wood! 459 26:12:17
185 Sisu Striders 482 26:12:34
186 Beans with Attitude 675 26:12:39
187 Van Full of Purvs 164 26:13:26
188 Road Runners 428 26:14:50
189 The Methylene Pedestrians 635 26:16:22
190 Semper Ubi Sub Ubi 28 26:16:25
191 28 Minute Snafu 44 26:17:55
192 The Fuster Clucks 559 26:18:32
193 The Gold Fish 154 26:19:05
194 PGE Shock Treatment 973 26:19:39
195 OUT-4-FUN 232 26:20:46
196 St. Amantius's Apostles 907 26:21:25
197 Blister Sisters 947 26:21:53
198 Shut Up and Run 883 26:24:09
199 Gimpy Kenyans 827 26:24:18
200 You Can Run But You Can't Hide 983 26:24:28
201 Ravens in the Hood 144 26:24:58
202 Hot Van Time Machine 1513 26:27:53
203 THRUST 1515 26:28:25
204 Keep Austin Weird Gals 186 26:28:45
205 Last Best Place 932 26:29:02
206 The Sandrabbit 808 26:29:42
207 Athey Creek Christian Fellowship 752 26:30:26
208 What's In It For The Dog 810 26:32:02
209 Runners High 430 26:32:20
210 Traveshamockery 385 26:33:12
211 Wisco Kids 895 26:34:04
212 Decay Fighters 506 26:34:32
213 Seinfeld Re-Runs - No Double Dipping 610 26:36:24
214 Team Rev Up 591 26:36:37
215 Dana McQuown 553 26:36:41
216 Tori Perrizo 326 26:38:01
217 General Running Alumni 554 26:38:25
218 Sometimes a great notion 576 26:38:42
219 Team Bam!!! 690 26:39:09
220 Team Redline 668 26:41:10
221 Team Papé 38 26:41:17
222 Chocolate Thunder 379 26:42:00
223 TEAM CAF 913 26:43:38
224 Yoggers Do it Longer 908 26:43:58
225 Pacific Road Runners 790 26:44:16
226 So's Your Face 337 26:44:37
227 Gorge Plodders 493 26:44:48
228 Mad Macs - Road Warriors from McMinnville 726 26:45:29
229 Pacemakers 821 26:45:38
230 The Super Deligates 435 26:46:08
231 Beerly Gonna Finish! 894 26:46:25
232 Strasburger 188 26:46:42
233 Big Kahuna 2 843 26:47:23
234 The Rest of the World 173 26:47:34
235 Freightliner Spare Tires 444 26:48:00
236 The Wild Bunch 1504 26:48:21
237 Stenno Carbon Pounders 302 26:48:33
238 Back to the Hood 691 26:48:57
239 Laney Shorett 280 26:49:33
240 BPA Killer Watts 697 26:50:15
241 COASTBUSTERS 1519 26:50:20
242 LED Feet 938 26:51:15
243 Fleet Feet 723 26:51:17
244 Corn Kids 243 26:51:34
245 TN Redneck Warriors 910 26:52:37
246 Kickin' Asphalt 533 26:52:50
247 Parking Lot Justice League 481 26:53:07
248 Running With Knives 631 26:53:28
249 CORPORATE CLYDESDALES 986 26:53:55
250 Dangerous Curves 618 26:54:18
251 We Will Run the Distance 354 26:54:33
252 Ralph Schultz  601 26:54:55
253 Coast to Coast 830 26:56:24
254 Harsch Homies 558 26:57:23
255 Cough Hack Wheeze 327 26:58:59
256 Sin City Saints 893 27:00:03
257 Just Plane Crazy 842 27:00:21
258 Hauna Harriers 737 27:00:25
259 Nike Golf "The Mach Squad" 161 27:00:42
260 Nightcrawlers 69 27:01:34
261 Run till you chafe! 604 27:01:40
262 Scalded Dawgs 957 27:01:50
263 First Trekkers 710 27:02:17
264 Team SEH 510 27:02:17
265 Broadband Of Brothers 110 27:02:27
266 Bare Down & Run 412 27:02:38
267 The A-Team 608 27:03:10
268 Hagz from the Hood 998 27:04:04
269 Femme Fatale - masters 995 27:04:07
270 Return of the Return of the Monster Jam 159 27:04:08
271 Kaiser Permanente Super Geezers 20 27:05:04
272 Honey Bucket Harriers 926 27:06:12
273 Run Wild 1514 27:07:30
274 Joy of Sox 829 27:08:00
275 Messiah's Leaping Lutherans 205 27:08:03
276 The fast, the slow and the elderly, since 1987 984 27:08:12
277 Fabulous Fifties over 60s 963 27:08:45
278 No Speed Limit 231 27:09:42
279 Wild Eye Express 996 27:10:14
280 adidas Team #4 689 27:10:53
281 Project 197 222 27:10:53
282 In it for the Burn 653 27:11:02
283 Acme Roadrunners 343 27:11:18
284 Free Range Bacon 172 27:11:23
285 Singapore Squid Squad 804 27:11:23
286 Team Energy Events 550 27:12:20
287 Team Janrain 295 27:12:27
288 Runnin Scared 1531 27:12:39
289 SNAP Crackle Pop FITNESS 473 27:13:14
290 The Mob 535 27:13:16
291 Urban Papas 281 27:13:36
292 Building Champions 365 27:13:38
293 HeadHunters 1501 27:14:04
294 Garmin ForeRunners Canada 793 27:14:08
295 For Those About to Walk 504 27:14:51
296 Mixed up Sub-Masters 595 27:14:58
297 Iowa Educators Wolfpack 890 27:15:01
298 Hormone Derange 972 27:15:28
299 Hurtin for Certain 832 27:15:34
300 We've Got the Runs 840 27:15:50
301 Step It Up 809 27:16:15
302 The Village Idiots 638 27:16:23
303 Vanderbilt EM: Running On MD 861 27:16:24
304 Nestle Purina 884 27:16:34
305 Clark College Penguins 562 27:17:24
306 Inky Oinkers 976 27:18:15
307 The Trots 728 27:18:15
308 Cure JM 609 27:18:21
309 Bodacious Bison 216 27:18:24
310 MegaDEATH 229 27:18:50
311 To Die Is Gain 507 27:19:27
312 Gluten for Punishment 268 27:19:42
313 Mel Gibson's Life Coach 344 27:20:10
314 Intestinal Distress 87 27:20:14
315 Girls Gone Running 45 27:21:19
316 Take the Money and Run 783 27:21:34
317 Minus-A-Meniscus 916 27:21:52
318 LaCamas Loons 489 27:22:09
319 No Shock Advised 839 27:22:32
320 Oregon State Police - Foot Pursuit 1507 27:23:27
321 OHSU Sports Medicine 118 27:23:32
322 tequila shooters 46 27:24:14
323 Stop Thief! 667 27:24:25
324 Team Nitro 897 27:24:53
325 Jack Asphalts 351 27:25:39
326 It's Long and Hard 322 27:26:17
327 Nevidatah Asphalt Kickers 889 27:28:05
328 Buns on the Run 57 27:28:16
329 Menace II Sobriety 1512 27:28:51
330 B.C. Switties & Swalls 791 27:28:56
331 4 Nuns We Run 711 27:29:00
332 DRAGON NASS 53 27:29:35
333 It's Long....Can You Take It! 564 27:32:15
334 Montana Running Ranchers 189 27:32:23
335 Got Sole? 169 27:33:00
336 The Third Leg Is The Hardest 886 27:33:43
337 Arriba Ziba 58 27:34:00
338 Team Red White & Blumenauer 806 27:34:02
339 The Redeem Team 739 27:34:09
340 Experience and Guile 16 27:34:12
341 See Jane Run 445 27:34:22
342 Coast Busters 537 27:34:31
343 Liberty 198 27:35:16
344 En Fuego 614 27:35:28
345 Guys Without Soles 143 27:36:27
346 BACON LOVERS UNITED 756 27:37:07
347 Gotta Have... More Vuvuzela! 416 27:37:11
348 Mexico's Happy Runners 799 27:37:11
349 They Call Us "TATER SALAD" 357 27:37:42
350 Those Aren't Pillows 262 27:37:49
351 2 HOT 2 "HANDFUL" 434 27:38:00
352 We Eat Between Legs 778 27:38:30
353 Milwaukie's Best 93 27:38:35
354 Corriendo con el Diablo 748 27:38:57
355 Summerlake Snails 502 27:39:14
356 Runners in the Mist 394 27:39:27
357 Loose Change 170 27:39:30
358 Friends With Benefits 294 27:40:14
359 The Turtleheads 779 27:40:46
360 For the Run of It 766 27:41:19
361 Lake Bible Church 543 27:41:27
362 Cho Mamas 859 27:41:31
363 KGW 116 27:42:15
364 You Got EastBurn'd 754 27:42:30
365 Half Fast Runners 903 27:42:35
366 Sex Panthers 203 27:42:45
367 ToeJammers 235 27:42:56
368 SOLE SURVIVORS 526 27:43:31
369 Lead Foot 495 27:43:42
370 Liquid Gold 633 27:43:59
371 Spuds in the Hood 887 27:45:08
372 Mrs. Robinsons AC 389 27:45:09
373 POI POUNDERS 950 27:45:29
374 Amazing Awaits 989 27:45:47
375 What's the Hurry 330 27:45:52
376 This isn't a 10k? 411 27:46:13
377 Got Gu  746 27:46:38
378 Road Rogues 1509 27:46:46
379 HOOD TO COAST The Movie 818 27:46:48
380 OfficeMax 1 122 27:47:23
381 Electrolyte Orchestra 643 27:47:41
382 Growing older, but not Up... 980 27:50:36
383 Gateway Sports Medicine Groupies 61 27:50:38
384 PLEASE RESUSCITATE 852 27:51:48
385 Crazywolftigers 285 27:51:57
386 P12'z N the HOOD 860 27:52:01
387 HeadHunter VooDoo Dolls 1502 27:52:08
388 Electra Glide 982 27:52:10
389 They run for fun in the hot, hot sun 1511 27:52:29
390 Funky Shoe Crew 599 27:53:16
391 Dirty Dozen 1521 27:53:53
392 Sleepless But Not In Seattle 1520 27:54:00
393 Side Whiners 717 27:54:05
394 Giselle Reyes 688 27:54:13
395 Just me and my beach 556 27:54:21
396 The Emerging Giants 168 27:54:54
397 MCRRC Meets West  316 27:54:54
398 Runners Of Unusual Stamina 781 27:54:55
399 We Upp'd our Pace 212 27:54:57
400 Durso 2.0 816 27:55:05
401 Colleen Reuland 588 27:55:16
402 Eyeballs to the Wall  193 27:55:21
403 Just Married 885 27:55:50
404 The Unqualified Opinions 616 27:56:17
405 Feets Of Justice 307 27:56:29
406 Aging Like A Fine Wine 834 27:56:39
407 3 Guys, 9 Girls...and a Relay 62 27:57:12
408 Relatively Good 284 27:57:15
409 Caffeine and banana League 81 27:57:39
410 The Irish Car Bombs 273 27:57:43
411 Argo Group US 632 27:58:00
412 No Really, Good For You 615 27:58:20
413 You Can't Handle The Truth 223 27:58:38
414 One Leg At A Time 319 27:58:54
415 The Jolly Lollygaggers 388 27:59:24
416 Libaneses 798 27:59:29
417 You Betta Belize It 856 27:59:42
418 Sweat Hogs 612 27:59:51
419 the fast and the furious 867 28:00:30
420 Team Plumb Crazy 141 28:00:39
421 Hot Asphalts 433 28:00:59
422 HemCon - No Chitosan Left Behind 547 28:01:12
423 Bruce's Giblet Wagon "Slap Me Some Happy" 731 28:01:32
424 Tetons and Pitons 858 28:01:52
425 Bottom of the Barrel 518 28:01:54
426 Sun At Work 402 28:01:58
427 Ebb and Flow 696 28:02:59
428 Can You Feel It? The MJ Rockstars 334 28:03:51
429 adidas adivas 18 28:03:56
430 Corndog Delight (was Differn't Strokes) 94 28:04:02
431 The No Drama Dozen 214 28:04:42
432 Monkey Butter Express 501 28:04:45
433 Mark Wax 520 28:05:39
434 Must-Run Resources 217 28:06:01
435 Someone Stole Our Name 1522 28:06:35
436 Mauka to Makai 876 28:06:39
437 Kara's Krew 1528 28:06:55
438 Slap Happy Runners 749 28:07:15
439 Party Brigade  249 28:07:22
440 The Ross Annes 192 28:07:30
441 Super Slugs 712 28:07:36
442 ALEBRIJES (PUMITAS) 797 28:08:37
443 Pimp My Stride 310 28:08:49
444 THA Hackers 352 28:08:50
445 SHOCingly, We're Still Running 602 28:09:00
446 Angela M. Donaca 725 28:09:01
447 Fromage Sans Voyage 645 28:09:02
448 All Terrain Legs 937 28:09:20
449 Sunny with a Chance of Pain 722 28:09:25
450 Team Ninkasi 702 28:09:27
451 Savannah's Striders 345 28:10:26
452 Strains, Sprains & Automobiles 358 28:10:29
453 Tequlia Mockingbirds 383 28:10:33
454 I Love Tacos 329 28:12:19
455 6 Dudes and 12 Boobs 40 28:12:35
456 Trample the Weak 89 28:12:36
457 Haulin' Oats 308 28:13:21
458 Sole to Sea 234 28:13:36
459 Who Sharted? We Sharted!! 74 28:13:52
460 adi Runnin' Devil's 666 28:14:03
461 The Red Lanterns West 606 28:14:12
462 Runnin' For The Honey's 605 28:14:38
463 Iron Mullets 665 28:15:15
464 Kiss My Asphalt II 221 28:15:34
465 GOING COASTAL 1543 28:15:50
466 Endorphin Addicts  835 28:16:41
467 Camp Bennett Hawaii 850 28:17:20
468 Tramps 900 28:17:58
469 Hot Heels 686 28:18:15
470 Garmin Forerunners Oregon 704 28:18:34
471 Rolling in . . . DOH!! 332 28:18:35
472 Return of the Asphalt Warriors 70 28:19:02
473 Team Chiquita 522 28:19:10
474 Squawking Palindromes 905 28:19:22
475 Hoodzilla Return To The Beach!!!!! 759 28:19:23
476 Team Terryberry 2010 669 28:19:24
477 Tornado Alley 342 28:19:29
478 That 70's Show 277 28:19:48
479 I'm Too Sexy for This Van 275 28:20:33
480 No Name 301 28:21:02
481 We're Doing What? 703 28:21:08
482 TrailNuts 465 28:22:31
483 The Chick-fil-A Team 891 28:22:50
484 South Side Sea Dawgs 271 28:23:25
485 WebMD One 100 28:23:28
486 Sportsbras,spandex&Tampons Oh My 476 28:23:35
487 Running Water XIV 299 28:23:56
488 Unshaven Masses 471 28:24:29
489 Rogue Medevac 26 28:25:04
490 Runs in the Family 269 28:25:27
491 Hood to Happiness 252 28:25:36
492 Runnin' Down My Leg 34 28:25:37
493 Angry Don and the Instigators 264 28:26:09
494 Roosters in the Henhouse 847 28:27:26
495 In-laws and Outlaws 258 28:27:38
496 Gresham Fire DNR 88 28:28:07
497 Politically Incorrect 241 28:28:15
498 Ship's Wrecks 807 28:28:51
499 Like the Wind 600 28:28:56
500 Hoof Hearted 729 28:29:14
501 Team That Has No Name 1536 28:29:23
502 Grateful Tread Remix 870 28:29:34
503 Snowy Biscuit 296 28:29:42
504 The Pain Gang 441 28:30:21
505 Clif Bar 125 28:30:24
506 Equip Africa 95 28:30:32
507 Samaritan Striders 2 825 28:30:32
508 Fred Meyer - Bodies In Motion 103 28:30:44
509 Must Finish Alive (MFA) 639 28:30:46
510 This is Not in My Job Description 270 28:31:30
511 Perkins & Company 565 28:31:31
512 Rob Rickard 50 28:32:47
513 The Night Train from Nashville 811 28:32:57
514 Phat Chicks 750 28:33:13
515 Cardiac Arrest 777 28:33:14
516 Three Coasts 929 28:33:22
517 No Turning Back 901 28:33:36
518 Kenya Catch Me V 820 28:33:37
519 Non-Human Security 700 28:33:55
520 Wild Eagles 865 28:33:58
521 At the End of Our Legs 340 28:34:37
522 Drop Dead Dozen 85 28:34:53
523 Running Mad 68 28:34:58
524 Go Team Go 721 28:35:33
525 No Reason Why #1 544 28:35:43
526 No Reason Why #2 545 28:35:43
527 Gorge"ous Teachers 17 28:36:08
528 Run..Forrest..Run! 1535 28:36:15
529 Why? 761 28:36:28
530 Do You Smell Something 156 28:36:50
531 The Flaming Shins 782 28:37:07
532 SWWeaty Briefs 440 28:37:23
533 iLAG 372 28:37:25
534 Killer Puffins 48 28:37:46
535 Running for Whiskey 384 28:37:53
536 Temporary Insanity 312 28:38:20
537 Holiday Retirement Runners 97 28:38:34
538 Dawn Patrol 664 28:38:43
539 DNR 561 28:38:45
540 Ethics on the Run 207 28:39:25
541 Runners Gone Wild 425 28:39:39
542 Dancing Nancies 868 28:39:50
543 Rentrak Wet Sox 769 28:39:58
544 Bob's Red Mill Running Grainiacs 82 28:41:07
545 Swift whiskey 866 28:41:08
546 Lethal Corners 677 28:41:24
547 Great Gaspers 578 28:41:26
548 EHQ1 160 28:41:35
549 S'not Rocket Science 933 28:41:36
550 11 Lords and 1 Pig 528 28:41:36
551 Old Guys Running 9 28:41:46
552 The HOODlums 768 28:41:48
553 The Fresh Pot Track & Field 233 28:42:19
554 Super Cheeseheads 805 28:42:40
555 Twister Sisters 812 28:42:40
556 Peter and the Wolves 7 28:43:30
557 Bent Out Of Shape 629 28:43:43
558 Grover's Revenge 742 28:43:44
559 Not So Hot Pursuit 568 28:44:18
560 Team Better than Christmas 63 28:44:40
561 Too Stupid To Walk  525 28:45:03
562 Contact Precautions 534 28:46:13
563 Kiss My Asphalt 213 28:46:42
564 Adventure Dental 208 28:46:49
565 Original Twisted Blister 764 28:47:00
566 No Runner Left Behind 585 28:47:42
567 Run Like A Mother 583 28:47:44
568 LeatherLungs and JogBras 909 28:47:47
569 Staple Removers 120 28:47:48
570 Windbreakers 335 28:47:57
571 Krauts on Tour 794 28:48:11
572 Running on Empty 593 28:48:28
573 waterproof dragons 224 28:48:40
574 Quohog Rhode Island Running Club 853 28:48:41
575 Cancer Patrol 136 28:48:46
576 Slow is the New Fast 288 28:49:03
577 Twelve Exhausted Runners with Diarrhea (TERDs) 449 28:49:12
578 TryAthletes 981 28:50:27
579 Nurse Next Door 788 28:51:17
580 SuperMan & 11 Other People 413 28:52:23
581 Tonkon Torpedoes 353 28:52:29
582 Blowin' Bayou 523 28:52:37
583 Half-Fast 200 28:52:45
584 The Amazing Disgrace 634 28:52:49
585 Hunter and Gatherers 581 28:52:54
586 Running Amuck 552 28:53:01
587 Team CPR 743 28:53:22
588 School Runnings 29 28:53:31
589 Slo-Mo 369 28:53:40
590 TEAM SHAKE N BAKE 751 28:54:02
591 AKT in AKTion 705 28:54:08
592 Team Adams 90 28:54:19
593 B&V Team: Straight from the Tap 765 28:54:32
594 Tired, Kicking & Winded 315 28:54:40
595 Nordic Trek 92 28:55:02
596 Amy Vohs 582 28:55:41
597 The Robbinhoods 375 28:55:51
598 It's Like Pulling Teeth 570 28:55:58
599 Fujimi 530 28:56:33
600 SUCKIN' WIND 714 28:56:52
601 Gun Totin' Glee Club 774 28:57:46
602 Team Crossroads 899 28:58:02
603 Team Manu Forti 693 28:58:15
604 Beekman's Dozen 66 28:58:24
605 Warning: Van stopping to let our next runner Run 747 28:59:11
606 Swift Justice 659 28:59:37
607 Run Long & Perspire 381 29:00:01
608 PDX COASTERS 256 29:00:18
609 We Come From Behind 370 29:00:30
610 Got Vaseline? 872 29:00:34
611 Chinook Winds-CTSI 135 29:00:37
612 I Hurt, You Hurt, We All Hurt 32 29:00:39
613 Run a Little Fava 291 29:00:53
614 Tualatin Crawlfish 456 29:01:12
615 Apple Dumpling Gang 584 29:01:30
616 Venimus, Curromus, Vomitus 873 29:01:47
617 Crazy Eights 179 29:02:56
618 The Ligers 692 29:03:18
619 The Chicks that Cruise 77 29:03:39
620 Summit Network Solutions 457 29:03:50
621 Sara Shanks 1525 29:04:47
622 Guys and Chicks from 406 817 29:04:51
623 Who Sharted 404 29:04:54
624 Lean and Green 228 29:05:03
625 Swashbucklers 755 29:05:19
626 AROM 91 29:05:47
627 Martini 42 29:05:55
628 23 balls to the wall and Lumpy 833 29:06:25
629 Captain Doug and the Scurvy Crew 267 29:07:27
630 Alycia Ysasaga 454 29:07:29
631 Shut Yer Piehole 'N Run! 317 29:07:30
632 All in the Family 56 29:07:59
633 What Were We Thinking? 54 29:09:10
634 LAS CHILANGAS 801 29:09:26
635 Dam Runners 349 29:09:50
636 Ryan Road Runners 869 29:10:31
637 Yahooligans! 994 29:10:54
638 Kult Kevorkian 36 29:10:56
639 Anning-Johnson 607 29:11:21
640 The Apple Fritter Avengers 598 29:11:28
641 Our Third Leg is Longer Than Yours 321 29:11:33
642 The Maple Bar Gang 442 29:12:30
643 Your Pace or Mine 760 29:13:33
644 Black Eyed Beavs 557 29:13:44
645 11 Sugars with a Cup of Joe 305 29:14:16
646 God Seeker's 225 29:14:24
647 Team Biohazard 362 29:14:41
648 Marion County Die Hards! 487 29:16:34
649 Run Like There Are Velociraptors on Your Tail 988 29:16:56
650 Team Rocks-on 762 29:18:39
651 The apples don't fall far 254 29:18:44
652 The Good, The Bad, and The Shin Splints. 646 29:18:52
653 adilicious 681 29:18:58
654 Insight to Seaside 470 29:19:38
655 Die Mutigen Pünktchen 624 29:20:04
656 Duran, I Ran 431 29:20:21
657 RotoRunners 83 29:20:24
658 Petroff Center 19 29:20:56
659 Cougars, Beavers and Huskies Oh My! 780 29:20:59
660 360 Went 360 360 29:21:18
661 Look Good Naked 126 29:21:36
662 Lean Genes 661 29:21:37
663 Design To Move 683 29:21:37
664 Team Stoll 112 29:21:43
665 Edelman Northwest 73 29:21:51
666 The Coasters 555 29:23:08
667 Whisker Biscuits And Gravy 355 29:23:13
668 WebMD Fall Stars 99 29:23:42
669 Stairway to Heaven 540 29:23:55
670 Eat, Pray, Run 408 29:24:46
671 Crampons and Crayons 331 29:24:48
672 R.Bowe 911 29:24:53
673 EBC HOODIES 651 29:25:37
674 The 12 Beaches 272 29:26:01
675 Ekin 158 29:26:23
676 I wish we had a funny name 792 29:26:29
677 Roadkillin' Raiders 60 29:26:50
678 Columbia's Coasters 429 29:26:55
679 Friess Flyers 339 29:27:18
680 Team Kul 121 29:27:38
681 Cascade Coasters 569 29:27:54
682 Tree Tops To Flip Flops 663 29:28:07
683 Trans Fatty Asses 236 29:28:19
684 HENRY'S 12 PACK 244 29:28:24
685 Tardy for the Party 276 29:28:39
686 Fork Why Athletics 716 29:29:21
687 A Good Case of the Runs 39 29:29:33
688 No Sleep 'til Seaside 348 29:29:36
689 Kind of a Big Deal 197 29:29:46
690 We Used to Run a lot  274 29:29:47
691 Portland Fire Dragons 390 29:29:57
692 MI" Running 1532 29:30:27
693 Barco - Visibly Sweaty 263 29:30:41
694 Your Shoe's United 176 29:31:31
695 Running on Empty - MN 934 29:31:37
696 Chicks on a Run 626 29:33:06
697 Geeks in Sneaks I 398 29:33:41
698 Extremely Warn 511 29:33:52
699 Bad to the Bone 397 29:34:31
700 Shrute Beet Farm 527 29:34:57
701 Hugh Jorgan 837 29:35:46
702 Get me to the Beach on Time 715 29:36:59
703 The Bear Runners 461 29:37:57
704 EcoStreakers 325 29:38:25
705 Runnin' On MT 421 29:38:40
706 Rubberband Balls 119 29:39:00
707 Big Bad Joe and the Joggers 577 29:39:00
708 197 Mile Beer Run 414 29:39:25
709 Reservation Runners 828 29:39:42
710 Barrel of Monkeys 306 29:39:54
711 Running for the Woods 515 29:39:58
712 BEGINNERS LUCK 443 29:40:06
713 Stumbo's Prayer Warriors 571 29:41:09
714 We're Smarter than We Run 784 29:41:14
715 UHAULIN' BOOTY 30 29:42:04
716 Sole Sisters 494 29:43:06
717 Charcie's Angels 480 29:43:16
718 Chupacabras 846 29:43:53
719 Designated Drinkers 175 29:44:18
720 Booty-Chasers (Pirates with Questionable Soles) 386 29:44:40
721 Ugatawanna 826 29:45:08
722 Team Footloose 367 29:45:33
723 Insurance Unlimited Runaways 513 29:45:34
724 Round Table Pizza Fun Team 709 29:46:06
725 Tina Irvine 382 29:47:05
726 Team roadkill 52 29:47:34
727 The Donner Party 536 29:47:37
728 A Legacy of Sore Muscles... at The Children's Hospital at
Legacy Emanuel
660 29:47:42
729 We Eat Dust 1524 29:48:39
730 Freedom Runners 592 29:48:49
731 Run Mama Run 246 29:49:19
732 B Donka Donks 59 29:49:32
733 Don't Stop An Uhh 674 29:49:35
734 Fresh Frogs 567 29:50:51
735 miCoach made me do it! 684 29:51:12
736 Dude, thought you had the clipboard 392 29:51:30
737 Nike Make Mine A Double 149 29:51:43
738 Supersonic Slugs 670 29:51:47
739 Action Figures 657 29:52:15
740 Nonpassive failures 713 29:52:21
741 Buns of Glory 282 29:52:44
742 The Dead Cheetahs 289 29:53:06
743 El Guts 922 29:53:26
744 Runners On Draft 286 29:53:30
745 Team Precision 187 29:54:05
746 Road Rash 673 29:54:07
747 DC Synergy 574 29:54:11
748 Boise Bunrunners 888 29:54:27
749 Portland Pounders 396 29:54:43
750 Valley Girls 137 29:54:49
751 Office Pace 177 29:55:21
752 AHA! Easy Writers 238 29:55:26
753 Team RunIR 486 29:55:48
754 DEA Lightning Slugs 279 29:56:18
755 Going Coastal1 706 29:56:31
756 The Loose Neutrals 508 29:56:46
757 NADS 987 29:57:09
758 Real Men of Genius 347 29:57:13
759 MAYDAY 531 29:58:21
760 Heavy Breathers 586 29:58:22
761 Silverton Hosp. A Shot of Motivation 680 29:58:23
762 Code Monkeys 260 29:58:37
763 Blount 619 29:58:58
764 Runners by Design 314 29:59:19
765 COWS 546 29:59:23
766 Killer Snails 738 30:00:41
767 It's all Downhill - on Average! 654 30:00:52
768 From Bananas to Beers 514 30:01:39
769 Unethical Time Travelers 773 30:01:46
770 LiveStrong 1 180 30:01:58
771 On a Diet of Worms 278 30:02:55
772 Team Stoked 439 30:03:18
773 Team Short Bus 304 30:03:38
774 Brown Trout 771 30:04:10
775 adidas Team #3 682 30:04:22
776 WTF EVERS 458 30:04:59
777 Sandelie Golf Stiff Shafts 33 30:05:16
778 It Seemed Like A Good Idea In January 80 30:05:58
779 Close The Gap 140 30:06:03
780 You'll Be Fine.... 671 30:06:04
781 A Case of Winos 453 30:06:48
782 Marcus Arunnerus 257 30:06:55
783 Drooling Moose Migration 31 30:07:09
784 Bakers Dozen Minus One 391 30:07:26
785 AGROTAIN Ncredibles 882 30:08:27
786 Keeli 517 30:08:56
787 Bare Your Beach Balls 551 30:09:21
788 Wrecking Crew 509 30:09:35
789 Do a little dance...make a little love...lets RUN TONIGHT 650 30:09:50
790 Breaking Away (Hoosiers) 628 30:10:04
791 Brazilian Elite Squad 787 30:10:10
792 Since 1989 The Coastbusters 701 30:10:51
793 The Young and The Rest of Us 393 30:10:53
794 The Pain Train 336 30:11:10
795 The Young and the Breathless 492 30:11:12
796 Fred Meyer - Team Lindsay 105 30:11:23
797 Rain Runners 422 30:11:31
798 23 Feet 694 30:11:56
799 Blister, Chafe, & Wine 239 30:12:44
800 You Should Smell The Other Van 409 30:12:48
801 Powder to Chowder 423 30:13:21
802 HDR Engineering 67 30:13:30
803 General Hospital 323 30:13:33
804 In it for the Money 613 30:13:57
805 Talk to the Hand 921 30:14:16
806 OHSU Knight Cancer Institute AYA Team 248 30:15:03
807 ¿Por Que No? 195 30:15:20
808 Oregon Stood to Toast[ers] 483 30:16:18
809 Suck it up and run! 475 30:16:20
810 Rum Runners 803 30:16:35
811 Blisters and Brews 123 30:16:46
812 CrossPointe Cruisers 359 30:17:00
813 Andrew Corrado 662 30:17:19
814 Faithful Runners 298 30:19:12
815 ULtimate Runners 512 30:19:35
816 Wii Not Fit 1533 30:20:15
817 Aching to Coast 637 30:20:16
818 Green Feet 836 30:20:45
819 MotherHood To Coast aka The Cougar Club 313 30:21:04
820 Mudsharks 102 30:21:06
821 Pain Don't Hurt 415 30:21:07
822 Smokin' Hot Beer Brats 51 30:21:11
823 Stack Monkeys 770 30:22:14
824 Turbo Turtles 1539 30:22:40
825 Chariots of Fury 892 30:23:18
826 36 Legs to Kegs 107 30:23:31
827 12-Pack 732 30:24:16
828 Pick M Up - Put M Down 469 30:24:27
829 Legs and Co 538 30:24:46
830 I Thought This Was A 5K!!! 237 30:25:37
831 Off in the Closet 611 30:25:40
832 S-12-C 800 30:25:44
833 A Dirty Dozen 218 30:25:50
834 PepsiCo Cross Country Women 1000 30:26:17
835 Financial Center Mortgage 474 30:26:46
836 Chase This Rear 734 30:26:46
837 Goin Down & Gettin Wet 98 30:27:10
838 Burnin' Hell-sinkis 549 30:27:13
839 Blacktop Buddies 185 30:28:07
840 Gu Gu Girls 620 30:30:07
841 Shake and Bake 472 30:30:13
842 Left Out 918 30:31:12
843 IP Faster 293 30:32:06
844 Westward Ho! 979 30:32:07
845 The Grateful Dade 877 30:32:09
846 Allison Clarke 253 30:33:32
847 The Running Fools 985 30:34:14
848 WE R.O.C. 904 30:34:26
849 Femme Fatale Supers 5 30:34:38
850 Racing Bears for Beers 772 30:34:58
851 Potter's Feet 196 30:35:28
852 CHUBAR Chafed Up Beyond All Recognition 655 30:35:29
853 TEARS FOR BEERS 730 30:35:29
854 Rowdy Runners Crammed in the Van 718 30:35:38
855 Muffin Tops and Banana Hammocks 733 30:36:57
856 sleepless in scappoose 572 30:37:07
857 Bodyglide. blisters and bengay 419 30:38:14
858 Coastbusters 184 30:38:16
859 Race To Beer 720 30:38:26
860 Rubbed Raw 753 30:40:26
861 Singapore Noodles 174 30:41:32
862 Mile Eggs Arse Oar 78 30:41:46
863 Opulence Fine 287 30:43:01
864 Ellen Morin 266 30:43:26
865 Comatoes 687 30:43:37
866 Team Duckhunt 178 30:44:27
867 Vanguards 41 30:44:53
868 Cobra Kai 226 30:45:01
869 Urbanmamas on the Run 247 30:46:41
870 The Flying Cox Clan 573 30:46:55
871 Warfighter Sports 857 30:49:31
872 no need4speed 374 30:49:40
873 Numb & Number 503 30:50:11
874 Dogs On The Run 350 30:50:55
875 We thought this was a 5k? 153 30:50:56
876 St. John Grace Racers 500 30:50:59
877 Queens of De Nile 11 30:52:05
878 V-Runners 516 30:52:59
879 9RunRun 719 30:53:02
880 The Runs 678 30:53:42
881 Team PFG 204 30:56:36
882 Twelve Geeks-A-Running 519 30:57:14
883 Alpha Kenny Body 548 30:57:53
884 PBR (poor broken runners) 881 30:59:50
885 HodgePodge21 566 31:00:25
886 B/TEC - Giving it 50% 539 31:01:40
887 whatever 368 31:02:30
888 TEAM TURBO 311 31:03:09
889 Interlopers 658 31:03:24
890 Precision Runners 395 31:03:28
891 Stellar J  1530 31:04:53
892 Just1X 924 31:05:38
893 We thought this was a 5K 623 31:05:58
894 Run Of The Mill 300 31:06:13
895 Blade Runners 630 31:06:14
896 Fire in the Sole 625 31:06:53
897 Chocolate Milk F.C. and friends 292 31:07:15
898 Arrrr....we there yet?  387 31:08:01
899 Shakin our Maracas 485 31:08:41
900 Pint of no return 724 31:09:01
901 The RearEnders 380 31:09:21
902 Souped Up Runners! 464 31:09:38
903 Blisters in the Sun 917 31:09:40
904 Streakin' EKINs 1 167 31:09:54
905 The Tattoed Lady 424 31:11:14
906 Sole sisters 230 31:11:26
907 Fred Meyer - Team Ed Wong 104 31:12:40
908 Timberline ROCKS! 134 31:14:14
909 KillerBee Hinders 43 31:14:49
910 Wellness Runners 463 31:15:01
911 plaque panthers 699 31:15:48
912 Greenhorns by the Dozen 1538 31:16:03
913 Tualatin Super Masterpieces 2 31:16:42
914 Curves Ahead 1529 31:17:19
915 Killer Wanna Bees 496 31:18:30
916 2 Lingering Vans of WhoopAss 1526 31:19:15
917 Kaiser Rolls 25 31:19:18
918 Left Coast Banditos 462 31:20:16
919 Running Wounded 580 31:23:05
920 fuller family 366 31:23:38
921 dirty dozen 814 31:24:57
922 Dirty Dawgs and Bodacious Babes 1523 31:27:28
923 The Ethiopia Project 133 31:28:25
924 Blazin Trailers 757 31:29:25
925 Old Enough To Know Better 579 31:30:02
926 RUN DSP 64 31:31:51
927 Pull It Together 210 31:32:02
928 Canadian Girls Rock 789 31:32:29
929 Fried Legs & SPAM 622 31:33:14
930 KATOD 448 31:33:31
931 Summerlake Slugs 589 31:33:40
932 Doyle Rules 488 31:33:44
933 GoLDS 72 31:33:59
934 BIcan Fitness 898 31:34:14
935 Twelve Tough Mothers 1541 31:34:48
936 Fast & Easy 672 31:35:26
937 Physically Challenged 219 31:36:31
938 12 Tequilas to go 432 31:36:56
939 Disodorly Conduct 371 31:37:52
940 CRAZIER BY THE DOZEN 698 31:37:53
941 Running Wild 2 822 31:39:53
942 Flying Sparks  84 31:40:03
943 Heels for Hope 707 31:42:33
944 Knot Again! 407 31:42:36
945 Blowfish 3.0 259 31:43:18
946 Luna Chicks 844 31:43:35
947 Chug Life 124 31:43:44
948 i don't want you to cry i need you to run 815 31:43:52
949 Running for Broke 65 31:44:20
950 Only God 763 31:46:05
951 SICK and TWISTED 676 31:46:41
952 Fifty-Fifty 14 31:48:24
953 Team Descend 524 31:49:19
954 Top Gun 744 31:49:20
955 Chafed and Lubed 532 31:50:45
956 Best In Test 400 31:51:52
957 Long Running Jokes 75 31:52:15
958 The Grateful for a Bed 361 31:53:54
959 Mambu Badwho? (formerly Western Flyers) 240 31:54:40
960 Slay the Relay 563 31:55:37
961 Boom Boom Oowww! 227 31:55:43
962 Vitaminwater/Kink.fm 117 31:56:05
963 Always RUNNING L8 647 32:00:43
964 Coastal Crusaders 320 32:01:06
965 The Wild Alaskans 427 32:04:04
966 Cornerstone 55 32:04:44
967 Gluttons for punishment 644 32:04:47
968 Sole Train 364 32:07:58
969 Balls and Dolls 101 32:08:03
970 Daina and the Pigs 35 32:08:18
971 Michael Jackson has left the building and got into OUR van 265 32:08:39
972 Carl's Jr. Stars 437 32:09:36
973 The Veterans Home Team 597 32:15:09
974 Tenacious Tortoises 642 32:16:13
975 Dozen Dashing Damsels 420 32:16:35
976 Hoody and the Go Fish  498 32:16:50
977 Grateful Tread 542 32:17:00
978 The tortoises & the hare 410 32:17:37
979 2 bikinis & 14 shorts 183 32:19:07
980 You Look Pretty 587 32:20:51
981 Misery Obviously Loves Company 925 32:21:03
982 Our giga-hurtz 679 32:22:48
983 Shazam 923 32:23:19
984 Winded Warriors 446 32:25:46
985 The Sole Sisters 341 32:26:02
986 Sweaty Vixens 767 32:28:05
987 12 Tough Cookies......Better Without the Nuts! 363 32:32:26
988 SIRENS on the Run 37 32:32:30
989 A.W.A. 505 32:35:33
990 Speedy Turtles 220 32:36:42
991 Chasing Destiny 378 32:37:32
992 Beer Run 328 32:38:57
993 Target Practice 497 32:39:35
994 Speedy Runners OnDemand 652 32:40:59
995 99 Problems, but a blister ain't one 685 32:42:11
996 Running from the Law & Dave Markowitz 333 32:43:21
997 Sweatin' To the Beach 250 32:43:49
998 Blood, Sweat and Beers! 490 32:47:41
999 TEAM 455 33:02:02
1000 Girls Running Wild 373 33:05:31
1001 BIG APPLE DUMPLING GANG 928 33:08:26
1002 Make 'Em Cry 656 33:08:42
1003 TRAUMA-TIZED 740 33:09:57
1004 LiveStrong 2 181 33:14:09
1005 lucy  992 33:15:33
1006 Running from Students! 405 33:17:43
1007 Speedy Gonzalez y los Mas Looneys  735 33:19:03
1008 Van de Kramps 47 33:23:47
1009 Four Decades Running 466 33:42:37
1010 A Family Affair 521 33:43:04
1011 Heart 'N Sole 15 33:56:12
1012 Sparkin' Hood to Coast 649 34:02:09
1013 RunGCRun 165 34:03:37
1014 12 Angry Runners 603 34:05:04
1015 Team BIGHORN 1542 34:07:47
1016 Team WTF 491 34:13:07
1017 It Runs in the Family 245 34:20:14
1018 Red Cross Recreational Joggers 708 34:21:23
1019 Eagle Viper Fang League 477 34:23:40
1020 Run to the Beach.GC 166 34:26:18
1021 Better Off Dead 452 35:10:27
1022 Marga-relay-ville 403 35:40:05
1023 Cruickshank's Revenge 426 35:50:20


Corporate Mens Open
1 Google 969 19:41:05
2 Nike Dairy Airs 151 21:25:48
3 The Intel Quad Corps 21 21:28:00
4 Precision Castsharks 211 22:50:02
5 Nike Great Bowels of Fire 152 23:02:05
6 Nike Semi-Slow 162 23:34:35
7 Speed Racers 346 24:42:05
8 Jim Hulse 930 24:49:18
9 Running Our Assets Off! 139 25:10:46
10 Shiney Heinies 155 25:33:52
11 Runners Wanted 1527 25:45:05
12 12 Angry Glutes (x2) 438 26:08:50
13 Cirque du Sore Legs - Nieuwstraten 109 26:12:00
14 Beans with Attitude 675 26:12:39
15 PGE Shock Treatment 973 26:19:39
16 Decay Fighters 506 26:34:32
17 Team Bam!!! 690 26:39:09
18 Team Papé 38 26:41:17
19 The Rest of the World 173 26:47:34
20 Freightliner Spare Tires 444 26:48:00
21 BPA Killer Watts 697 26:50:15
22 Fleet Feet 723 26:51:17
23 Parking Lot Justice League 481 26:53:07
24 Running With Knives 631 26:53:28
25 CORPORATE CLYDESDALES 986 26:53:55
26 Nike Golf "The Mach Squad" 161 27:00:42
27 Team SEH 510 27:02:17
28 Broadband Of Brothers 110 27:02:27
29 Project 197 222 27:10:53
30 Team Janrain 295 27:12:27
31 Building Champions 365 27:13:38
32 Garmin ForeRunners Canada 793 27:14:08
33 Hormone Derange 972 27:15:28
34 To Die Is Gain 507 27:19:27
35 Take the Money and Run 783 27:21:34
36 No Shock Advised 839 27:22:32
37 Oregon State Police - Foot Pursuit 1507 27:23:27
38 Buns on the Run 57 27:28:16
39 En Fuego 614 27:35:28
40 ToeJammers 235 27:42:56
41 Giselle Reyes 688 27:54:13
42 The Emerging Giants 168 27:54:54
43 Argo Group US 632 27:58:00
44 Team Plumb Crazy 141 28:00:39
45 HemCon - No Chitosan Left Behind 547 28:01:12
46 Sun At Work 402 28:01:58
47 adi Runnin' Devil's 666 28:14:03
48 Team Terryberry 2010 669 28:19:24
49 The Chick-fil-A Team 891 28:22:50
50 Unshaven Masses 471 28:24:29
51 Perkins & Company 565 28:31:31
52 Do You Smell Something 156 28:36:50
53 Ethics on the Run 207 28:39:25
54 Rentrak Wet Sox 769 28:39:58
55 Staple Removers 120 28:47:48
56 Team CPR 743 28:53:22
57 AKT in AKTion 705 28:54:08
58 B&V Team: Straight from the Tap 765 28:54:32
59 I Hurt, You Hurt, We All Hurt 32 29:00:39
60 Summit Network Solutions 457 29:03:50
61 Lean and Green 228 29:05:03
62 Alycia Ysasaga 454 29:07:29
63 Dam Runners 349 29:09:50
64 Ryan Road Runners 869 29:10:31
65 adilicious 681 29:18:58
66 Design To Move 683 29:21:37
67 Roadkillin' Raiders 60 29:26:50
68 Cascade Coasters 569 29:27:54
69 HENRY'S 12 PACK 244 29:28:24
70 Barco - Visibly Sweaty 263 29:30:41
71 Geeks in Sneaks I 398 29:33:41
72 Extremely Warn 511 29:33:52
73 Barrel of Monkeys 306 29:39:54
74 We're Smarter than We Run 784 29:41:14
75 Team Precision 187 29:54:05
76 Road Rash 673 29:54:07
77 Team RunIR 486 29:55:48
78 DEA Lightning Slugs 279 29:56:18
79 Real Men of Genius 347 29:57:13
80 Blount 619 29:58:58
81 Brown Trout 771 30:04:10
82 AGROTAIN Ncredibles 882 30:08:27
83 Blister, Chafe, & Wine 239 30:12:44
84 HDR Engineering 67 30:13:30
85 Stack Monkeys 770 30:22:14
86 36 Legs to Kegs 107 30:23:31
87 Financial Center Mortgage 474 30:26:46
88 Burnin' Hell-sinkis 549 30:27:13
89 Singapore Noodles 174 30:41:32
90 Team Duckhunt 178 30:44:27
91 Warfighter Sports 857 30:49:31
92 St. John Grace Racers 500 30:50:59
93 Stellar J  1530 31:04:53
94 Streakin' EKINs 1 167 31:09:54
95 RUN DSP 64 31:31:51
96 Flying Sparks  84 31:40:03
97 Chug Life 124 31:43:44
98 Running for Broke 65 31:44:20
99 Our giga-hurtz 679 32:22:48
Corporate Mixed Open
1 Tarahumara 147 19:17:08
2 Brooks Beast 1518 20:20:50
3 GE Meatballs 1510 21:45:42
4 Ah Mr. T 290 25:35:47
5 Brooks Trance 1517 25:52:03
6 Brooks Ghost 1516 25:58:10
7 Tomato Farmers 148 26:03:45
8 Dirty Renegades 171 26:08:18
9 The Gold Fish 154 26:19:05
10 Tori Perrizo 326 26:38:01
11 Laney Shorett 280 26:49:33
12 Harsch Homies 558 26:57:23
13 First Trekkers 710 27:02:17
14 Return of the Return of the Monster Jam 159 27:04:08
15 adidas Team #4 689 27:10:53
16 Iowa Educators Wolfpack 890 27:15:01
17 Nestle Purina 884 27:16:34
18 Clark College Penguins 562 27:17:24
19 4 Nuns We Run 711 27:29:00
20 Got Sole? 169 27:33:00
21 Arriba Ziba 58 27:34:00
22 What's the Hurry 330 27:45:52
23 We Upp'd our Pace 212 27:54:57
24 Just Married 885 27:55:50
25 The Unqualified Opinions 616 27:56:17
26 Someone Stole Our Name 1522 28:06:35
27 THA Hackers 352 28:08:50
28 WebMD One 100 28:23:28
29 Ship's Wrecks 807 28:28:51
30 Clif Bar 125 28:30:24
31 Fred Meyer - Bodies In Motion 103 28:30:44
32 This is Not in My Job Description 270 28:31:30
33 Non-Human Security 700 28:33:55
34 The Flaming Shins 782 28:37:07
35 SWWeaty Briefs 440 28:37:23
36 DNR 561 28:38:45
37 The Fresh Pot Track & Field 233 28:42:19
38 Super Cheeseheads 805 28:42:40
39 Peter and the Wolves 7 28:43:30
40 Adventure Dental 208 28:46:49
41 Cancer Patrol 136 28:48:46
42 Tonkon Torpedoes 353 28:52:29
43 School Runnings 29 28:53:31
44 It's Like Pulling Teeth 570 28:55:58
45 Chinook Winds-CTSI 135 29:00:37
46 Guys and Chicks from 406 817 29:04:51
47 Yahooligans! 994 29:10:54
48 Insight to Seaside 470 29:19:38
49 Edelman Northwest 73 29:21:51
50 The Coasters 555 29:23:08
51 WebMD Fall Stars 99 29:23:42
52 Tree Tops To Flip Flops 663 29:28:07
53 MI" Running 1532 29:30:27
54 Running for the Woods 515 29:39:58
55 Tina Irvine 382 29:47:05
56 A Legacy of Sore Muscles... at The Children's Hospital at
Legacy Emanuel
660 29:47:42
57 miCoach made me do it! 684 29:51:12
58 Action Figures 657 29:52:15
59 adidas Team #3 682 30:04:22
60 OHSU Knight Cancer Institute AYA Team 248 30:15:03
61 ¿Por Que No? 195 30:15:20
62 ULtimate Runners 512 30:19:35
63 Coastbusters 184 30:38:16
64 Comatoes 687 30:43:37
65 Dogs On The Run 350 30:50:55
66 Precision Runners 395 31:03:28
67 Blade Runners 630 31:06:14
68 Fire in the Sole 625 31:06:53
69 Souped Up Runners! 464 31:09:38
70 Blisters in the Sun 917 31:09:40
71 Fred Meyer - Team Ed Wong 104 31:12:40
72 Timberline ROCKS! 134 31:14:14
73 plaque panthers 699 31:15:48
74 Physically Challenged 219 31:36:31
75 Best In Test 400 31:51:52
76 Vitaminwater/Kink.fm 117 31:56:05
77 Running from the Law & Dave Markowitz 333 32:43:21
Corporate Womens Open
1 BAC Women 146 23:03:25
2 adidas adivas 18 28:03:56
3 Sportsbras,spandex&Tampons Oh My 476 28:23:35
4 Gorge"ous Teachers 17 28:36:08
5 Petroff Center 19 29:20:56
6 Nike Make Mine A Double 149 29:51:43
7 PepsiCo Cross Country Women 1000 30:26:17
8 lucy  992 33:15:33

Mens Masters
1 Almost Dead Jocks  991 20:05:31
2 Black Flag 27 20:39:46
3 Team Endorphiends 6 20:52:52
4 Parkland Youth 4 21:04:32
5 Dead on Arrival (DOA) 8 21:51:00
6 Sound Sports 964 22:11:15
7 Team Money....Devalued 936 22:24:45
8 Team Bula 968 22:34:29
9 Gu 2 1537 22:57:34
10 LEX 182 23:03:03
11 Atlanta Track Club Masters Men Team 194 23:06:15
12 Team Mojo 966 23:25:45
13 Fighting Squirrels 775 24:16:12
14 DbM Lemmings 974 24:35:26
15 Liquid Carb Road Racers 874 24:49:32
16 Team Chopped Liver 309 25:14:52
17 Badly Bruised Bananas 776 25:47:10
18 The Wild Bunch 1504 26:48:21
19 Hot Asphalts 433 28:00:59
20 Killer Puffins 48 28:37:46
21 Chase This Rear 734 30:26:46
22 Westward Ho! 979 30:32:07

Mens Open
1 BAC Men 145 17:24:16
2 Knoxville Track Club 1 18:14:49
3 Team Ariki New Zealand 802 19:07:38
4 Portland Track Club 944 19:30:23
5 The Olympic Club 946 19:52:15
6 MTR Western #2 132 20:01:56
7 Changes in Altitude 948 21:57:10
8 Stress Factors 1534 21:58:35
9 704 XC 920 22:43:50
10 Browse This 879 22:53:17
11 Wood to Boast 931 23:24:43
12 Babson's Army 283 23:43:12
13 Strangers in a Strange Van 875 23:47:53
14 Old and Fading 831 23:51:06
15 KM SPORT ITALIA 795 23:51:57
16 Eleven Jerks and a Squirt 575 24:09:24
17 Run Forest 447 24:11:52
18 Killer Kows 590 24:13:23
19 Trinity Sports Camps 621 24:14:29
20 We Wanna Go Fast! 896 24:21:29
21 Navy Never Fades 736 24:25:17
22 Twisted Blister 484 24:37:52
23 Mid-Leg Crisis 163 24:44:07
24 Southern Soles 849 24:48:28
25 N.E.P. Runners 215 24:54:36
26 When the Fit Hits the Shan 450 24:57:37
27 ez duhzit 758 25:02:36
28 Muscles and Clams 915 25:07:32
29 Kickin Asphalt 813 25:12:36
30 Rusty Trombone 902 25:17:40
31 Big Sausage Pizza 318 25:23:22
32 Seamonkeys 303 25:28:23
33 Huschkaka and Friends 855 25:29:14
34 Muppets Take Mt Hood 871 25:29:28
35 Gonna Fly Now 255 25:35:29
36 BRAZILIAN WIND 786 25:37:29
37 Joyce's Juggernauts 695 25:38:14
38 AFROTC Det 695 86 25:39:08
39 Portland Fire 251 25:44:49
40 Run with the Grain 338 25:45:34
41 Nuclear Yellow P 324 25:46:24
42 Hummingbirds 796 25:49:17
43 Moon Boys and Earth Girls 376 25:50:51
44 Lost in the PACS 24 25:55:38
45 Flying Finns 529 25:58:04
46 Team Natasha 864 25:58:26
47 Team Boileau 406 25:59:34
48 Banana Striders 971 26:00:11
49 Court Jesters 76 26:00:50
50 The Original Roads Scholars 975 26:03:21
51 Magnificent Bastards & a Lady 906 26:04:15
52 Coast Mortem 478 26:04:55
53 Chafers 479 26:09:19
54 Get Smart! 377 26:11:31
55 Gary and The Dangledowns 648 26:12:00
56 Road Runners 428 26:14:50
57 Semper Ubi Sub Ubi 28 26:16:25
58 28 Minute Snafu 44 26:17:55
59 The Fuster Clucks 559 26:18:32
60 OUT-4-FUN 232 26:20:46
61 You Can Run But You Can't Hide 983 26:24:28
62 Ravens in the Hood 144 26:24:58
63 THRUST 1515 26:28:25
64 The Sandrabbit 808 26:29:42
65 Wisco Kids 895 26:34:04
66 Seinfeld Re-Runs - No Double Dipping 610 26:36:24
67 TEAM CAF 913 26:43:38
68 So's Your Face 337 26:44:37
69 Gorge Plodders 493 26:44:48
70 Mad Macs - Road Warriors from McMinnville 726 26:45:29
71 The Super Deligates 435 26:46:08
72 Ralph Schultz  601 26:54:55
73 Coast to Coast 830 26:56:24
74 Just Plane Crazy 842 27:00:21
75 Hauna Harriers 737 27:00:25
76 Bare Down & Run 412 27:02:38
77 The A-Team 608 27:03:10
78 Honey Bucket Harriers 926 27:06:12
79 No Speed Limit 231 27:09:42
80 Wild Eye Express 996 27:10:14
81 In it for the Burn 653 27:11:02
82 Acme Roadrunners 343 27:11:18
83 Free Range Bacon 172 27:11:23
84 Singapore Squid Squad 804 27:11:23
85 SNAP Crackle Pop FITNESS 473 27:13:14
86 For Those About to Walk 504 27:14:51
87 Hurtin for Certain 832 27:15:34
88 The Village Idiots 638 27:16:23
89 Vanderbilt EM: Running On MD 861 27:16:24
90 MegaDEATH 229 27:18:50
91 Stop Thief! 667 27:24:25
92 Team Nitro 897 27:24:53
93 It's Long and Hard 322 27:26:17
94 Nevidatah Asphalt Kickers 889 27:28:05
95 Menace II Sobriety 1512 27:28:51
96 The Third Leg Is The Hardest 886 27:33:43
97 The Redeem Team 739 27:34:09
98 Gotta Have... More Vuvuzela! 416 27:37:11
99 Those Aren't Pillows 262 27:37:49
100 Runners in the Mist 394 27:39:27
101 Lake Bible Church 543 27:41:27
102 Cho Mamas 859 27:41:31
103 You Got EastBurn'd 754 27:42:30
104 Sex Panthers 203 27:42:45
105 Amazing Awaits 989 27:45:47
106 This isn't a 10k? 411 27:46:13
107 HOOD TO COAST The Movie 818 27:46:48
108 PLEASE RESUSCITATE 852 27:51:48
109 Crazywolftigers 285 27:51:57
110 P12'z N the HOOD 860 27:52:01
111 Electra Glide 982 27:52:10
112 They run for fun in the hot, hot sun 1511 27:52:29
113 Funky Shoe Crew 599 27:53:16
114 Dirty Dozen 1521 27:53:53
115 MCRRC Meets West  316 27:54:54
116 Eyeballs to the Wall  193 27:55:21
117 Feets Of Justice 307 27:56:29
118 The Irish Car Bombs 273 27:57:43
119 You Can't Handle The Truth 223 27:58:38
120 The No Drama Dozen 214 28:04:42
121 Mark Wax 520 28:05:39
122 Must-Run Resources 217 28:06:01
123 Kara's Krew 1528 28:06:55
124 Savannah's Striders 345 28:10:26
125 Strains, Sprains & Automobiles 358 28:10:29
126 Trample the Weak 89 28:12:36
127 Haulin' Oats 308 28:13:21
128 Sole to Sea 234 28:13:36
129 Kiss My Asphalt II 221 28:15:34
130 Endorphin Addicts  835 28:16:41
131 Garmin Forerunners Oregon 704 28:18:34
132 Rolling in . . . DOH!! 332 28:18:35
133 Return of the Asphalt Warriors 70 28:19:02
134 Tornado Alley 342 28:19:29
135 That 70's Show 277 28:19:48
136 South Side Sea Dawgs 271 28:23:25
137 Running Water XIV 299 28:23:56
138 Rogue Medevac 26 28:25:04
139 Hood to Happiness 252 28:25:36
140 Runnin' Down My Leg 34 28:25:37
141 Angry Don and the Instigators 264 28:26:09
142 Gresham Fire DNR 88 28:28:07
143 Team That Has No Name 1536 28:29:23
144 Grateful Tread Remix 870 28:29:34
145 Snowy Biscuit 296 28:29:42
146 The Pain Gang 441 28:30:21
147 Equip Africa 95 28:30:32
148 Must Finish Alive (MFA) 639 28:30:46
149 The Night Train from Nashville 811 28:32:57
150 Cardiac Arrest 777 28:33:14
151 At the End of Our Legs 340 28:34:37
152 No Reason Why #1 544 28:35:43
153 Why? 761 28:36:28
154 Running for Whiskey 384 28:37:53
155 Holiday Retirement Runners 97 28:38:34
156 Dawn Patrol 664 28:38:43
157 Dancing Nancies 868 28:39:50
158 Bob's Red Mill Running Grainiacs 82 28:41:07
159 Great Gaspers 578 28:41:26
160 11 Lords and 1 Pig 528 28:41:36
161 Too Stupid To Walk  525 28:45:03
162 Original Twisted Blister 764 28:47:00
163 No Runner Left Behind 585 28:47:42
164 waterproof dragons 224 28:48:40
165 Twelve Exhausted Runners with Diarrhea (TERDs) 449 28:49:12
166 Nurse Next Door 788 28:51:17
167 SuperMan & 11 Other People 413 28:52:23
168 Blowin' Bayou 523 28:52:37
169 Running Amuck 552 28:53:01
170 Tired, Kicking & Winded 315 28:54:40
171 The Robbinhoods 375 28:55:51
172 Fujimi 530 28:56:33
173 Tualatin Crawlfish 456 29:01:12
174 Venimus, Curromus, Vomitus 873 29:01:47
175 Swashbucklers 755 29:05:19
176 Shut Yer Piehole 'N Run! 317 29:07:30
177 What Were We Thinking? 54 29:09:10
178 Kult Kevorkian 36 29:10:56
179 Anning-Johnson 607 29:11:21
180 The Maple Bar Gang 442 29:12:30
181 Your Pace or Mine 760 29:13:33
182 Black Eyed Beavs 557 29:13:44
183 God Seeker's 225 29:14:24
184 The apples don't fall far 254 29:18:44
185 Duran, I Ran 431 29:20:21
186 Whisker Biscuits And Gravy 355 29:23:13
187 Stairway to Heaven 540 29:23:55
188 R.Bowe 911 29:24:53
189 EBC HOODIES 651 29:25:37
190 Ekin 158 29:26:23
191 Friess Flyers 339 29:27:18
192 Team Kul 121 29:27:38
193 Your Shoe's United 176 29:31:31
194 The Bear Runners 461 29:37:57
195 EcoStreakers 325 29:38:25
196 Rubberband Balls 119 29:39:00
197 Big Bad Joe and the Joggers 577 29:39:00
198 Round Table Pizza Fun Team 709 29:46:06
199 Team roadkill 52 29:47:34
200 The Donner Party 536 29:47:37
201 We Eat Dust 1524 29:48:39
202 Dude, thought you had the clipboard 392 29:51:30
203 The Dead Cheetahs 289 29:53:06
204 El Guts 922 29:53:26
205 Runners On Draft 286 29:53:30
206 Boise Bunrunners 888 29:54:27
207 Portland Pounders 396 29:54:43
208 Going Coastal1 706 29:56:31
209 Code Monkeys 260 29:58:37
210 Runners by Design 314 29:59:19
211 It's all Downhill - on Average! 654 30:00:52
212 LiveStrong 1 180 30:01:58
213 On a Diet of Worms 278 30:02:55
214 Team Stoked 439 30:03:18
215 Close The Gap 140 30:06:03
216 A Case of Winos 453 30:06:48
217 Bakers Dozen Minus One 391 30:07:26
218 Do a little dance...make a little love...lets RUN TONIGHT 650 30:09:50
219 The Young and The Rest of Us 393 30:10:53
220 The Pain Train 336 30:11:10
221 Powder to Chowder 423 30:13:21
222 In it for the Money 613 30:13:57
223 Talk to the Hand 921 30:14:16
224 Oregon Stood to Toast[ers] 483 30:16:18
225 CrossPointe Cruisers 359 30:17:00
226 Faithful Runners 298 30:19:12
227 Mudsharks 102 30:21:06
228 Pain Don't Hurt 415 30:21:07
229 Smokin' Hot Beer Brats 51 30:21:11
230 Legs and Co 538 30:24:46
231 Shake and Bake 472 30:30:13
232 The Running Fools 985 30:34:14
233 Bodyglide. blisters and bengay 419 30:38:14
234 Rubbed Raw 753 30:40:26
235 Vanguards 41 30:44:53
236 Numb & Number 503 30:50:11
237 Team PFG 204 30:56:36
238 Twelve Geeks-A-Running 519 30:57:14
239 TEAM TURBO 311 31:03:09
240 Run Of The Mill 300 31:06:13
241 The Tattoed Lady 424 31:11:14
242 KillerBee Hinders 43 31:14:49
243 Wellness Runners 463 31:15:01
244 2 Lingering Vans of WhoopAss 1526 31:19:15
245 fuller family 366 31:23:38
246 The Ethiopia Project 133 31:28:25
247 Doyle Rules 488 31:33:44
248 GoLDS 72 31:33:59
249 Heels for Hope 707 31:42:33
250 Blowfish 3.0 259 31:43:18
251 The Grateful for a Bed 361 31:53:54
252 Cornerstone 55 32:04:44
253 Daina and the Pigs 35 32:08:18
254 Grateful Tread 542 32:17:00
255 Chasing Destiny 378 32:37:32
256 Beer Run 328 32:38:57
257 Target Practice 497 32:39:35
258 Blood, Sweat and Beers! 490 32:47:41
259 Running from Students! 405 33:17:43
260 12 Angry Runners 603 34:05:04

Mens Submasters
1 K-Swiss Extra Virgins 943 19:23:46
2 Big Kahunas 949 21:08:08
3 Nature Boyz 15 Powered by Wheaties Fuel 953 21:25:54
4 Team Nidever 111 21:31:50
5 Houston, we have a problem 962 21:33:04
6 Dirty Half Dozen +6 1540 21:41:36
7 Jacks In The Hood 851 22:24:09
8 Andrea Colpitt 841 22:59:21
9 I Closed Wolski's 1505 23:14:02
10 Team DB 142 23:31:20
11 Seniors of Mosier Valley 467 23:33:34
12 Snake Hill Preservation Society 460 23:48:10
13 Dead Men Running 79 24:14:47
14 Blue Thunder 191 24:16:55
15 Norse Force 880 24:30:47
16 12 Pleasant Pheasant Pluckers 627 24:31:11
17 Gu'd To Go 417 24:41:55
18 Crap Chute 745 24:58:17
19 Peter Bowden 838 24:59:00
20 Slow Code 418 25:00:58
21 No time to stop for the slop  297 25:04:11
22 Lickety Split 71 25:08:06
23 Brazil Run&Fun Team - 2010 H2C 785 25:17:06
24 Lost in Pace 401 25:30:13
25 Umumshiba 823 25:46:26
26 Rick Finn 927 25:50:22
27 NoCho 541 25:57:27
28 Road Kilts 640 26:00:19
29 Spider Monkeys 596 26:02:42
30 Cultured Runners 978 26:04:56
31 Moose Knuckles 919 26:06:42
32 Magnificent Milers 199 26:10:32
33 Wanna Beer? Sher-Wood! 459 26:12:17
34 Gimpy Kenyans 827 26:24:18
35 Athey Creek Christian Fellowship 752 26:30:26
36 Chocolate Thunder 379 26:42:00
37 Beerly Gonna Finish! 894 26:46:25
38 Strasburger 188 26:46:42
39 LED Feet 938 26:51:15
40 The fast, the slow and the elderly, since 1987 984 27:08:12
41 Urban Papas 281 27:13:36
42 Step It Up 809 27:16:15
43 Inky Oinkers 976 27:18:15
44 Cure JM 609 27:18:21
45 Bodacious Bison 216 27:18:24
46 Mel Gibson's Life Coach 344 27:20:10
47 Guys Without Soles 143 27:36:27
48 For the Run of It 766 27:41:19
49 Half Fast Runners 903 27:42:35
50 Mrs. Robinsons AC 389 27:45:09
51 Got Gu  746 27:46:38
52 Road Rogues 1509 27:46:46
53 OfficeMax 1 122 27:47:23
54 Side Whiners 717 27:54:05
55 Relatively Good 284 27:57:15
56 Libaneses 798 27:59:29
57 Bruce's Giblet Wagon "Slap Me Some Happy" 731 28:01:32
58 Tetons and Pitons 858 28:01:52
59 Corndog Delight (was Differn't Strokes) 94 28:04:02
60 Sunny with a Chance of Pain 722 28:09:25
61 In-laws and Outlaws 258 28:27:38
62 iLAG 372 28:37:25
63 Not So Hot Pursuit 568 28:44:18
64 Windbreakers 335 28:47:57
65 Quohog Rhode Island Running Club 853 28:48:41
66 Slow is the New Fast 288 28:49:03
67 The Amazing Disgrace 634 28:52:49
68 Warning: Van stopping to let our next runner Run 747 28:59:11
69 Who Sharted 404 29:04:54
70 23 balls to the wall and Lumpy 833 29:06:25
71 RotoRunners 83 29:20:24
72 Shrute Beet Farm 527 29:34:57
73 Designated Drinkers 175 29:44:18
74 Freedom Runners 592 29:48:49
75 Office Pace 177 29:55:21
76 COWS 546 29:59:23
77 Brazilian Elite Squad 787 30:10:10
78 You Should Smell The Other Van 409 30:12:48
79 CHUBAR Chafed Up Beyond All Recognition 655 30:35:29
80 12 Tequilas to go 432 31:36:56
81 Team Descend 524 31:49:19
82 2 bikinis & 14 shorts 183 32:19:07
83 BIG APPLE DUMPLING GANG 928 33:08:26

Mens Super Masters
1 Dead Jocks in a Box 999 23:30:48
2 Scalded Dawgs 957 27:01:50
3 Fabulous Fifties over 60s 963 27:08:45
4 Old Guys Running 9 28:41:46

Mixed Masters
1 Brew-Bunnies 960 20:52:31
2 Buffalo Rohto Checkers 824 22:50:52
3 It's All Gouda! 12 24:10:08
4 Young Tarts & Old Farts 970 25:36:38
5 Last Legs 961 25:59:19
6 Nightcrawlers 69 27:01:34
7 Runners Gone Wild 425 28:39:39
8 Insurance Unlimited Runaways 513 29:45:34
9 Knot Again! 407 31:42:36

Mixed Open
1 WILLAMETTE DENTAL 13 19:55:31
2 New York Bad Apples 959 20:22:16
3 Puke and Rally 955 20:24:56
4 Maloney’s Commandos 945 21:33:43
5 MustAche 2 Coast 113 22:03:21
6 Hell on Waffles 150 23:19:27
7 Southeast Hood Rats 617 23:40:22
8 Adjective Nouns Verbing Adverbially 939 23:48:49
9 Eugene Running Company 96 24:04:00
10 Dream Smiles 636 24:28:09
11 Shinkansen 1508 24:28:45
12 Running For Shelter 242 24:45:29
13 Sour Flower Power 468 24:57:20
14 Red Dress Express 202 25:00:17
15 Sorry For Partying 935 25:03:30
16 SSA Mathletes 201 25:09:00
17 Zagalicious 451 25:18:01
18 Hard soiled legs 741 25:36:29
19 Captain Jax' Sparrows 848 25:36:49
20 Moon Over My Hammies 942 25:38:15
21 The Natural Disasters 863 25:47:24
22 Hillbillies 594 25:57:06
23 Coast busters 854 25:58:13
24 The Generics 977 26:01:19
25 genghis khan and the mongols 399 26:06:52
26 12 Buns but only 5 Sausages 499 26:08:05
27 Superheroes 356 26:08:27
28 Shut It Down 819 26:09:38
29 Sisu Striders 482 26:12:34
30 The Methylene Pedestrians 635 26:16:22
31 St. Amantius's Apostles 907 26:21:25
32 Hot Van Time Machine 1513 26:27:53
33 What's In It For The Dog 810 26:32:02
34 Runners High 430 26:32:20
35 Traveshamockery 385 26:33:12
36 Team Rev Up 591 26:36:37
37 Dana McQuown 553 26:36:41
38 Sometimes a great notion 576 26:38:42
39 Team Redline 668 26:41:10
40 Yoggers Do it Longer 908 26:43:58
41 Pacemakers 821 26:45:38
42 Stenno Carbon Pounders 302 26:48:33
43 Back to the Hood 691 26:48:57
44 COASTBUSTERS 1519 26:50:20
45 Corn Kids 243 26:51:34
46 TN Redneck Warriors 910 26:52:37
47 Kickin' Asphalt 533 26:52:50
48 We Will Run the Distance 354 26:54:33
49 Cough Hack Wheeze 327 26:58:59
50 Run till you chafe! 604 27:01:40
51 Run Wild 1514 27:07:30
52 Messiah's Leaping Lutherans 205 27:08:03
53 Team Energy Events 550 27:12:20
54 Runnin Scared 1531 27:12:39
55 The Mob 535 27:13:16
56 We've Got the Runs 840 27:15:50
57 The Trots 728 27:18:15
58 Gluten for Punishment 268 27:19:42
59 Intestinal Distress 87 27:20:14
60 Minus-A-Meniscus 916 27:21:52
61 LaCamas Loons 489 27:22:09
62 OHSU Sports Medicine 118 27:23:32
63 tequila shooters 46 27:24:14
64 Jack Asphalts 351 27:25:39
65 B.C. Switties & Swalls 791 27:28:56
66 DRAGON NASS 53 27:29:35
67 Team Red White & Blumenauer 806 27:34:02
68 Coast Busters 537 27:34:31
69 Liberty 198 27:35:16
70 They Call Us "TATER SALAD" 357 27:37:42
71 We Eat Between Legs 778 27:38:30
72 Milwaukie's Best 93 27:38:35
73 Summerlake Snails 502 27:39:14
74 Loose Change 170 27:39:30
75 Friends With Benefits 294 27:40:14
76 KGW 116 27:42:15
77 Lead Foot 495 27:43:42
78 Liquid Gold 633 27:43:59
79 Spuds in the Hood 887 27:45:08
80 Electrolyte Orchestra 643 27:47:41
81 Growing older, but not Up... 980 27:50:36
82 Gateway Sports Medicine Groupies 61 27:50:38
83 Sleepless But Not In Seattle 1520 27:54:00
84 Runners Of Unusual Stamina 781 27:54:55
85 Durso 2.0 816 27:55:05
86 Aging Like A Fine Wine 834 27:56:39
87 3 Guys, 9 Girls...and a Relay 62 27:57:12
88 Caffeine and banana League 81 27:57:39
89 The Jolly Lollygaggers 388 27:59:24
90 You Betta Belize It 856 27:59:42
91 Sweat Hogs 612 27:59:51
92 the fast and the furious 867 28:00:30
93 Bottom of the Barrel 518 28:01:54
94 Can You Feel It? The MJ Rockstars 334 28:03:51
95 Monkey Butter Express 501 28:04:45
96 Mauka to Makai 876 28:06:39
97 Slap Happy Runners 749 28:07:15
98 Party Brigade  249 28:07:22
99 The Ross Annes 192 28:07:30
100 Super Slugs 712 28:07:36
101 Pimp My Stride 310 28:08:49
102 SHOCingly, We're Still Running 602 28:09:00
103 Angela M. Donaca 725 28:09:01
104 All Terrain Legs 937 28:09:20
105 Team Ninkasi 702 28:09:27
106 Tequlia Mockingbirds 383 28:10:33
107 Who Sharted? We Sharted!! 74 28:13:52
108 The Red Lanterns West 606 28:14:12
109 Runnin' For The Honey's 605 28:14:38
110 Iron Mullets 665 28:15:15
111 GOING COASTAL 1543 28:15:50
112 Camp Bennett Hawaii 850 28:17:20
113 Team Chiquita 522 28:19:10
114 Squawking Palindromes 905 28:19:22
115 TrailNuts 465 28:22:31
116 Runs in the Family 269 28:25:27
117 Roosters in the Henhouse 847 28:27:26
118 Politically Incorrect 241 28:28:15
119 Samaritan Striders 2 825 28:30:32
120 No Turning Back 901 28:33:36
121 Wild Eagles 865 28:33:58
122 Drop Dead Dozen 85 28:34:53
123 Running Mad 68 28:34:58
124 Go Team Go 721 28:35:33
125 No Reason Why #2 545 28:35:43
126 Run..Forrest..Run! 1535 28:36:15
127 Temporary Insanity 312 28:38:20
128 Lethal Corners 677 28:41:24
129 EHQ1 160 28:41:35
130 S'not Rocket Science 933 28:41:36
131 The HOODlums 768 28:41:48
132 Bent Out Of Shape 629 28:43:43
133 Grover's Revenge 742 28:43:44
134 Team Better than Christmas 63 28:44:40
135 Contact Precautions 534 28:46:13
136 Kiss My Asphalt 213 28:46:42
137 Running on Empty 593 28:48:28
138 TryAthletes 981 28:50:27
139 Half-Fast 200 28:52:45
140 Hunter and Gatherers 581 28:52:54
141 Team Adams 90 28:54:19
142 Nordic Trek 92 28:55:02
143 Amy Vohs 582 28:55:41
144 SUCKIN' WIND 714 28:56:52
145 Gun Totin' Glee Club 774 28:57:46
146 Team Manu Forti 693 28:58:15
147 Beekman's Dozen 66 28:58:24
148 Swift Justice 659 28:59:37
149 Run Long & Perspire 381 29:00:01
150 PDX COASTERS 256 29:00:18
151 We Come From Behind 370 29:00:30
152 Got Vaseline? 872 29:00:34
153 Run a Little Fava 291 29:00:53
154 Apple Dumpling Gang 584 29:01:30
155 Crazy Eights 179 29:02:56
156 Sara Shanks 1525 29:04:47
157 AROM 91 29:05:47
158 Martini 42 29:05:55
159 Captain Doug and the Scurvy Crew 267 29:07:27
160 The Apple Fritter Avengers 598 29:11:28
161 Our Third Leg is Longer Than Yours 321 29:11:33
162 11 Sugars with a Cup of Joe 305 29:14:16
163 Team Biohazard 362 29:14:41
164 Marion County Die Hards! 487 29:16:34
165 Run Like There Are Velociraptors on Your Tail 988 29:16:56
166 Team Rocks-on 762 29:18:39
167 The Good, The Bad, and The Shin Splints. 646 29:18:52
168 Die Mutigen Pünktchen 624 29:20:04
169 Cougars, Beavers and Huskies Oh My! 780 29:20:59
170 360 Went 360 360 29:21:18
171 Look Good Naked 126 29:21:36
172 Lean Genes 661 29:21:37
173 Team Stoll 112 29:21:43
174 Eat, Pray, Run 408 29:24:46
175 Crampons and Crayons 331 29:24:48
176 I wish we had a funny name 792 29:26:29
177 Columbia's Coasters 429 29:26:55
178 Trans Fatty Asses 236 29:28:19
179 Tardy for the Party 276 29:28:39
180 A Good Case of the Runs 39 29:29:33
181 No Sleep 'til Seaside 348 29:29:36
182 Kind of a Big Deal 197 29:29:46
183 We Used to Run a lot  274 29:29:47
184 Portland Fire Dragons 390 29:29:57
185 Running on Empty - MN 934 29:31:37
186 Bad to the Bone 397 29:34:31
187 Hugh Jorgan 837 29:35:46
188 Get me to the Beach on Time 715 29:36:59
189 Runnin' On MT 421 29:38:40
190 197 Mile Beer Run 414 29:39:25
191 Reservation Runners 828 29:39:42
192 Stumbo's Prayer Warriors 571 29:41:09
193 UHAULIN' BOOTY 30 29:42:04
194 Charcie's Angels 480 29:43:16
195 Booty-Chasers (Pirates with Questionable Soles) 386 29:44:40
196 Don't Stop An Uhh 674 29:49:35
197 Supersonic Slugs 670 29:51:47
198 Nonpassive failures 713 29:52:21
199 Buns of Glory 282 29:52:44
200 DC Synergy 574 29:54:11
201 The Loose Neutrals 508 29:56:46
202 NADS 987 29:57:09
203 MAYDAY 531 29:58:21
204 Silverton Hosp. A Shot of Motivation 680 29:58:23
205 Killer Snails 738 30:00:41
206 From Bananas to Beers 514 30:01:39
207 Unethical Time Travelers 773 30:01:46
208 Sandelie Golf Stiff Shafts 33 30:05:16
209 It Seemed Like A Good Idea In January 80 30:05:58
210 You'll Be Fine.... 671 30:06:04
211 Marcus Arunnerus 257 30:06:55
212 Drooling Moose Migration 31 30:07:09
213 Keeli 517 30:08:56
214 Bare Your Beach Balls 551 30:09:21
215 Wrecking Crew 509 30:09:35
216 Breaking Away (Hoosiers) 628 30:10:04
217 Since 1989 The Coastbusters 701 30:10:51
218 The Young and the Breathless 492 30:11:12
219 Fred Meyer - Team Lindsay 105 30:11:23
220 23 Feet 694 30:11:56
221 General Hospital 323 30:13:33
222 Rum Runners 803 30:16:35
223 Blisters and Brews 123 30:16:46
224 Andrew Corrado 662 30:17:19
225 Wii Not Fit 1533 30:20:15
226 Aching to Coast 637 30:20:16
227 Green Feet 836 30:20:45
228 Turbo Turtles 1539 30:22:40
229 Chariots of Fury 892 30:23:18
230 12-Pack 732 30:24:16
231 Pick M Up - Put M Down 469 30:24:27
232 I Thought This Was A 5K!!! 237 30:25:37
233 Off in the Closet 611 30:25:40
234 Goin Down & Gettin Wet 98 30:27:10
235 Blacktop Buddies 185 30:28:07
236 IP Faster 293 30:32:06
237 The Grateful Dade 877 30:32:09
238 Allison Clarke 253 30:33:32
239 Potter's Feet 196 30:35:28
240 TEARS FOR BEERS 730 30:35:29
241 Rowdy Runners Crammed in the Van 718 30:35:38
242 Muffin Tops and Banana Hammocks 733 30:36:57
243 sleepless in scappoose 572 30:37:07
244 Race To Beer 720 30:38:26
245 Mile Eggs Arse Oar 78 30:41:46
246 Opulence Fine 287 30:43:01
247 Ellen Morin 266 30:43:26
248 Cobra Kai 226 30:45:01
249 The Flying Cox Clan 573 30:46:55
250 We thought this was a 5k? 153 30:50:56
251 9RunRun 719 30:53:02
252 The Runs 678 30:53:42
253 Alpha Kenny Body 548 30:57:53
254 PBR (poor broken runners) 881 30:59:50
255 HodgePodge21 566 31:00:25
256 B/TEC - Giving it 50% 539 31:01:40
257 Interlopers 658 31:03:24
258 Just1X 924 31:05:38
259 We thought this was a 5K 623 31:05:58
260 Chocolate Milk F.C. and friends 292 31:07:15
261 Arrrr....we there yet?  387 31:08:01
262 Pint of no return 724 31:09:01
263 The RearEnders 380 31:09:21
264 Greenhorns by the Dozen 1538 31:16:03
265 Kaiser Rolls 25 31:19:18
266 Left Coast Banditos 462 31:20:16
267 Dirty Dawgs and Bodacious Babes 1523 31:27:28
268 Old Enough To Know Better 579 31:30:02
269 Pull It Together 210 31:32:02
270 Canadian Girls Rock 789 31:32:29
271 Fried Legs & SPAM 622 31:33:14
272 KATOD 448 31:33:31
273 Summerlake Slugs 589 31:33:40
274 BIcan Fitness 898 31:34:14
275 Fast & Easy 672 31:35:26
276 Disodorly Conduct 371 31:37:52
277 CRAZIER BY THE DOZEN 698 31:37:53
278 Only God 763 31:46:05
279 SICK and TWISTED 676 31:46:41
280 Top Gun 744 31:49:20
281 Long Running Jokes 75 31:52:15
282 Mambu Badwho? (formerly Western Flyers) 240 31:54:40
283 Slay the Relay 563 31:55:37
284 Always RUNNING L8 647 32:00:43
285 Coastal Crusaders 320 32:01:06
286 The Wild Alaskans 427 32:04:04
287 Gluttons for punishment 644 32:04:47
288 Sole Train 364 32:07:58
289 Balls and Dolls 101 32:08:03
290 Michael Jackson has left the building and got into OUR van
265 32:08:39
291 Carl's Jr. Stars 437 32:09:36
292 The Veterans Home Team 597 32:15:09
293 Tenacious Tortoises 642 32:16:13
294 Hoody and the Go Fish  498 32:16:50
295 Shazam 923 32:23:19
296 Winded Warriors 446 32:25:46
297 Speedy Turtles 220 32:36:42
298 Speedy Runners OnDemand 652 32:40:59
299 99 Problems, but a blister ain't one 685 32:42:11
300 Sweatin' To the Beach 250 32:43:49
301 TEAM 455 33:02:02
302 TRAUMA-TIZED 740 33:09:57
303 LiveStrong 2 181 33:14:09
304 Speedy Gonzalez y los Mas Looneys  735 33:19:03
305 Van de Kramps 47 33:23:47
306 A Family Affair 521 33:43:04
307 RunGCRun 165 34:03:37
308 Team BIGHORN 1542 34:07:47
309 Team WTF 491 34:13:07
310 It Runs in the Family 245 34:20:14
311 Red Cross Recreational Joggers 708 34:21:23
312 Run to the Beach.GC 166 34:26:18
313 Better Off Dead 452 35:10:27
314 Marga-relay-ville 403 35:40:05
315 Cruickshank's Revenge 426 35:50:20

Mixed Submasters
1 Slug Hunters 997 20:29:54
2 Leapin Lizards 23 21:18:55
3 Bandidos 941 22:19:49
4 Yazoo Growlers 862 23:29:40
5 Fat Cheetahs 1503 24:22:44
6 The Insomniacs 49 24:47:42
7 Key Lime Shooters 940 24:58:49
8 Fine Whine Too 10 25:00:07
9 24 Feet, 36 Legs 912 25:19:06
10 Last Best Place 932 26:29:02
11 Pacific Road Runners 790 26:44:16
12 Big Kahuna 2 843 26:47:23
13 Sin City Saints 893 27:00:03
14 Joy of Sox 829 27:08:00
15 HeadHunters 1501 27:14:04
16 Mixed up Sub-Masters 595 27:14:58
17 It's Long....Can You Take It! 564 27:32:15
18 Montana Running Ranchers 189 27:32:23
19 BACON LOVERS UNITED 756 27:37:07
20 Mexico's Happy Runners 799 27:37:11
21 Corriendo con el Diablo 748 27:38:57
22 The Turtleheads 779 27:40:46
23 SOLE SURVIVORS 526 27:43:31
24 HeadHunter VooDoo Dolls 1502 27:52:08
25 Just me and my beach 556 27:54:21
26 Colleen Reuland 588 27:55:16
27 No Really, Good For You 615 27:58:20
28 One Leg At A Time 319 27:58:54
29 Ebb and Flow 696 28:02:59
30 ALEBRIJES (PUMITAS) 797 28:08:37
31 Fromage Sans Voyage 645 28:09:02
32 I Love Tacos 329 28:12:19
33 6 Dudes and 12 Boobs 40 28:12:35
34 Hot Heels 686 28:18:15
35 Hoodzilla Return To The Beach!!!!! 759 28:19:23
36 I'm Too Sexy for This Van 275 28:20:33
37 No Name 301 28:21:02
38 We're Doing What? 703 28:21:08
39 Hoof Hearted 729 28:29:14
40 Three Coasts 929 28:33:22
41 Swift whiskey 866 28:41:08
42 LeatherLungs and JogBras 909 28:47:47
43 Krauts on Tour 794 28:48:11
44 Slo-Mo 369 28:53:40
45 TEAM SHAKE N BAKE 751 28:54:02
46 Team Crossroads 899 28:58:02
47 The Ligers 692 29:03:18
48 All in the Family 56 29:07:59
49 Fork Why Athletics 716 29:29:21
50 BEGINNERS LUCK 443 29:40:06
51 Chupacabras 846 29:43:53
52 B Donka Donks 59 29:49:32
53 Fresh Frogs 567 29:50:51
54 AHA! Easy Writers 238 29:55:26
55 Heavy Breathers 586 29:58:22
56 Team Short Bus 304 30:03:38
57 Suck it up and run! 475 30:16:20
58 S-12-C 800 30:25:44
59 A Dirty Dozen 218 30:25:50
60 Left Out 918 30:31:12
61 Racing Bears for Beers 772 30:34:58
62 no need4speed 374 30:49:40
63 V-Runners 516 30:52:59
64 Killer Wanna Bees 496 31:18:30
65 Running Wounded 580 31:23:05
66 dirty dozen 814 31:24:57
67 Blazin Trailers 757 31:29:25
68 Running Wild 2 822 31:39:53
69 i don't want you to cry i need you to run 815 31:43:52
70 Boom Boom Oowww! 227 31:55:43
71 The tortoises & the hare 410 32:17:37
72 Misery Obviously Loves Company 925 32:21:03
73 A.W.A. 505 32:35:33
74 Four Decades Running 466 33:42:37
75 Sparkin' Hood to Coast 649 34:02:09
76 Eagle Viper Fang League 477 34:23:40

Mixed Super Masters
1 No Walkin till the Van Passes 952 24:01:27
2 Nifty Fifties 436 24:10:05
3 Kaiser Permanente Super Geezers 20 27:05:04
4 Experience and Guile 16 27:34:12
5 POI POUNDERS 950 27:45:29
6 Rob Rickard 50 28:32:47
7 Fifty-Fifty 14 31:48:24

Womens Masters
1 Baba Yaga 954 23:14:10
2 Desperate Housewives 993 24:04:57
3 Tahoe Trail Babes 958 25:12:04
4 Femme Fatale - masters 995 27:04:07
5 Twister Sisters 812 28:42:40
6 Queens of De Nile 11 30:52:05
7 Tualatin Super Masterpieces 2 31:16:42

Womens Open
1 Girls Just Want to Have Fun 951 21:29:26
2 Atlanta Track Club 190 21:54:59
3 Pink Ladies 990 22:32:06
4 Team GFR Salty Sistas 3 23:38:11
5 Van Full of Purvs 164 26:13:26
6 Shut Up and Run 883 26:24:09
7 General Running Alumni 554 26:38:25
8 Dangerous Curves 618 26:54:18
9 Girls Gone Running 45 27:21:19
10 See Jane Run 445 27:34:22
11 2 HOT 2 "HANDFUL" 434 27:38:00
12 Tramps 900 28:17:58
13 Like the Wind 600 28:28:56
14 Kenya Catch Me V 820 28:33:37
15 The Chicks that Cruise 77 29:03:39
16 LAS CHILANGAS 801 29:09:26
17 The 12 Beaches 272 29:26:01
18 Chicks on a Run 626 29:33:06
19 Sole Sisters 494 29:43:06
20 Team Footloose 367 29:45:33
21 Run Mama Run 246 29:49:19
22 WTF EVERS 458 30:04:59
23 Rain Runners 422 30:11:31
24 Gu Gu Girls 620 30:30:07
25 WE R.O.C. 904 30:34:26
26 Urbanmamas on the Run 247 30:46:41
27 Shakin our Maracas 485 31:08:41
28 Sole sisters 230 31:11:26
29 Curves Ahead 1529 31:17:19
30 Chafed and Lubed 532 31:50:45
31 Dozen Dashing Damsels 420 32:16:35
32 You Look Pretty 587 32:20:51
33 The Sole Sisters 341 32:26:02
34 12 Tough Cookies......Better Without the Nuts! 363 32:32:26
35 SIRENS on the Run 37 32:32:30
36 Girls Running Wild 373 33:05:31
37 Make 'Em Cry 656 33:08:42

Womens Submasters
1 Team RunwithPaula 22 23:35:53
2 Nature Girlz 956 23:44:30
3 Hot Tamales 967 24:52:42
4 Sole Survivors  965 25:47:47
5 Maniac Moms 1506 26:05:55
6 Blister Sisters 947 26:21:53
7 Keep Austin Weird Gals 186 26:28:45
8 Hagz from the Hood 998 27:04:04
9 Phat Chicks 750 28:33:13
10 Run Like A Mother 583 28:47:44
11 Ugatawanna 826 29:45:08
12 Valley Girls 137 29:54:49
13 MotherHood To Coast aka The Cougar Club 313 30:21:04
14 whatever 368 31:02:30
15 Twelve Tough Mothers 1541 31:34:48
16 Luna Chicks 844 31:43:35
17 Sweaty Vixens 767 32:28:05

Womens Super Masters
 Team Name Team Number Time
1 Femme Fatale Supers 5 30:34:38
2 Heart 'N Sole 15 33:56:12

Post to:  
Post as: 
History for BowermanTC.com - Bowerman Track Club Official Site
YearVideosNewsPhotosBlogs
2014 15 15    
2013 17 40    
2012 26 27    
2011 24 25 27  
2010 17 14 108  
2009 41 20 244 2
2008 18 33   6
2007 2 3